Time;durP1;ratioP1;P1;durP2;ratioP2;P2;SDS_P1;SDS_P2;PMS_P1;PMS_P2;Temp;Humidity;BMP_temperature;BMP_pressure;BME280_temperature;BME280_humidity;BME280_pressure;Samples;Min_cycle;Max_cycle;Signal;HPM_P1;HPM_P2
2023/07/08 00:01:37;;;;;;;14.20;9.10;;;;;;;16.25;98.36;100784.24;179541;1254;46109;-90
2023/07/08 00:05:41;;;;;;;13.00;8.60;;;;;;;16.30;97.33;100782.25;180094;1252;58217;-90
2023/07/08 00:26:34;;;;;;;20.10;8.10;;;;;;;16.22;95.59;100779.98;179926;1262;44048;-61
2023/07/08 00:30:37;;;;;;;16.80;10.90;;;;;;;16.16;95.92;100778.67;179974;1262;59165;-61
2023/07/08 00:34:43;;;;;;;26.30;13.70;;;;;;;16.18;95.44;100772.70;179850;1262;45055;-61
2023/07/08 00:38:46;;;;;;;17.20;11.20;;;;;;;16.23;94.97;100772.41;179971;1262;44703;-60
2023/07/08 00:42:49;;;;;;;24.20;12.80;;;;;;;16.25;94.64;100765.92;179937;1262;46124;-60
2023/07/08 00:47:06;;;;;;;17.60;12.20;;;;;;;16.25;94.30;100762.20;179840;1262;43560;-61
2023/07/08 00:51:12;;;;;;;19.50;12.00;;;;;;;16.19;94.74;100759.95;179848;1262;60659;-60
2023/07/08 00:55:16;;;;;;;18.00;10.30;;;;;;;16.06;95.21;100763.50;179773;1262;44993;-61
2023/07/08 00:59:31;;;;;;;17.20;12.10;;;;;;;15.98;95.86;100763.91;179977;1262;43549;-60
2023/07/08 01:03:49;;;;;;;15.70;10.60;;;;;;;15.88;97.00;100762.70;179980;1262;45885;-60
2023/07/08 01:07:59;;;;;;;12.70;8.10;;;;;;;15.78;97.89;100756.16;179775;1262;45371;-60
2023/07/08 01:12:10;;;;;;;10.60;8.70;;;;;;;15.76;97.59;100760.97;179840;1264;58014;-60
2023/07/08 01:16:14;;;;;;;13.90;9.10;;;;;;;15.73;97.81;100761.63;179922;1262;43943;-61
2023/07/08 01:20:18;;;;;;;11.90;8.20;;;;;;;15.68;98.13;100761.23;179907;1262;43774;-61
2023/07/08 01:24:32;;;;;;;13.40;9.10;;;;;;;15.68;98.12;100761.77;179882;1263;44827;-61
2023/07/08 01:28:35;;;;;;;16.00;8.60;;;;;;;15.69;98.26;100755.05;179965;1265;43750;-62
2023/07/08 01:37:16;;;;;;;13.20;7.50;;;;;;;15.50;99.84;100746.48;179722;1262;44747;-62
2023/07/08 01:41:19;;;;;;;9.80;7.90;;;;;;;15.37;99.99;100744.70;179961;1263;45875;-61
2023/07/08 01:45:25;;;;;;;10.80;7.30;;;;;;;15.32;99.80;100746.73;179892;1262;46020;-61
2023/07/08 01:49:36;;;;;;;10.90;7.90;;;;;;;15.35;99.34;100745.34;179961;1262;43936;-62
2023/07/08 01:53:42;;;;;;;22.10;8.50;;;;;;;15.37;99.31;100742.33;179839;1262;58851;-62
2023/07/08 01:57:46;;;;;;;11.80;8.00;;;;;;;15.36;99.48;100741.70;179991;1262;44660;-61
2023/07/08 02:01:54;;;;;;;11.50;8.30;;;;;;;15.36;99.66;100740.63;179964;1264;43657;-62
2023/07/08 02:05:58;;;;;;;12.00;8.20;;;;;;;15.36;99.47;100738.30;180035;1262;45973;-61
2023/07/08 02:10:01;;;;;;;9.80;6.60;;;;;;;15.30;99.84;100739.81;180287;1262;43761;-61
2023/07/08 02:14:04;;;;;;;11.10;8.10;;;;;;;15.25;99.79;100741.65;180010;1265;57903;-61
2023/07/08 02:18:11;;;;;;;14.90;8.60;;;;;;;15.19;99.91;100739.95;180048;1262;44986;-61
2023/07/08 02:22:15;;;;;;;11.30;8.40;;;;;;;15.18;99.12;100737.73;179994;1262;43687;-61
2023/07/08 02:26:17;;;;;;;17.90;6.70;;;;;;;15.11;99.49;100734.79;179920;1262;43799;-61
2023/07/08 02:30:48;;;;;;;10.20;7.60;;;;;;;15.01;100.00;100735.90;179797;1262;43834;-61
2023/07/08 02:34:52;;;;;;;12.70;9.30;;;;;;;15.00;100.00;100727.73;179942;1262;58937;-61
2023/07/08 02:38:55;;;;;;;8.20;7.30;;;;;;;15.06;99.99;100726.27;179793;1262;43648;-60
2023/07/08 02:43:04;;;;;;;11.70;7.80;;;;;;;15.08;99.33;100724.83;179985;1262;43899;-61
2023/07/08 02:47:07;;;;;;;12.80;8.20;;;;;;;15.04;99.01;100729.33;179983;1262;43777;-62
2023/07/08 02:51:16;;;;;;;17.20;9.20;;;;;;;15.02;98.93;100730.29;179934;1262;46087;-62
2023/07/08 02:55:19;;;;;;;10.90;7.20;;;;;;;14.97;99.11;100728.35;179767;1266;58515;-62
2023/07/08 02:59:22;;;;;;;10.00;7.70;;;;;;;14.92;99.39;100729.89;179927;1264;44189;-61
2023/07/08 03:04:25;;;;;;;10.20;6.20;;;;;;;14.94;99.17;100728.47;179934;1263;45948;-61
2023/07/08 03:08:29;;;;;;;13.70;8.70;;;;;;;14.99;98.85;100728.05;180002;1262;43947;-60
2023/07/08 03:13:01;;;;;;;11.30;7.10;;;;;;;15.03;98.41;100733.95;179972;1262;43583;-61
2023/07/08 03:17:05;;;;;;;12.00;7.00;;;;;;;15.03;98.21;100736.09;179997;1261;58228;-61
2023/07/08 03:21:08;;;;;;;11.50;9.00;;;;;;;15.07;98.05;100737.83;180083;1263;45912;-61
2023/07/08 03:25:11;;;;;;;10.20;9.20;;;;;;;15.13;98.06;100741.86;180292;1262;44932;-61
2023/07/08 03:29:20;;;;;;;10.40;7.60;;;;;;;15.23;97.91;100741.45;179935;1262;45449;-61
2023/07/08 03:33:23;;;;;;;9.90;8.50;;;;;;;15.36;97.46;100744.58;179952;1262;43829;-61
2023/07/08 03:37:52;;;;;;;10.30;8.20;;;;;;;15.44;96.67;100740.23;180133;1262;58406;-61
2023/07/08 03:41:57;;;;;;;13.70;7.10;;;;;;;15.52;96.29;100741.25;180123;1265;44126;-62
2023/07/08 03:46:00;;;;;;;13.10;8.30;;;;;;;15.63;95.98;100742.79;179840;1264;46069;-61
2023/07/08 03:50:33;;;;;;;17.20;8.40;;;;;;;15.74;95.85;100746.50;179868;1264;43953;-60
2023/07/08 03:54:40;;;;;;;15.00;8.60;;;;;;;15.82;95.42;100746.12;178762;1272;43597;-62
2023/07/08 03:58:43;;;;;;;11.30;6.30;;;;;;;15.89;95.94;100747.48;178792;1271;58791;-61
2023/07/08 04:02:48;;;;;;;10.20;7.10;;;;;;;15.97;95.81;100739.52;178741;1273;43766;-62
2023/07/08 04:06:51;;;;;;;12.60;6.40;;;;;;;16.05;95.42;100737.66;178783;1273;45885;-61
2023/07/08 04:11:23;;;;;;;11.30;7.40;;;;;;;16.17;95.33;100741.88;178431;1275;46081;-62
2023/07/08 04:15:28;;;;;;;15.60;9.10;;;;;;;16.41;96.47;100747.19;178804;1275;43763;-62
2023/07/08 04:19:31;;;;;;;9.50;7.70;;;;;;;16.66;96.39;100747.78;178772;1273;58462;-62
2023/07/08 04:23:59;;;;;;;12.00;7.50;;;;;;;17.00;96.82;100743.13;178877;1272;46226;-61
2023/07/08 04:28:02;;;;;;;10.50;7.40;;;;;;;17.82;95.22;100737.58;178812;1273;44028;-61
2023/07/08 04:32:12;;;;;;;12.30;8.60;;;;;;;19.08;90.34;100732.17;179612;1263;43946;-61
2023/07/08 04:36:15;;;;;;;13.80;8.30;;;;;;;20.45;82.54;100730.23;179909;1262;44873;-61
2023/07/08 04:40:21;;;;;;;11.80;7.90;;;;;;;21.55;76.44;100719.82;179675;1261;58860;-61
2023/07/08 04:44:27;;;;;;;13.40;9.60;;;;;;;22.46;72.63;100716.84;179936;1262;44698;-61
2023/07/08 04:48:33;;;;;;;11.30;6.50;;;;;;;23.27;69.94;100720.73;179864;1262;46038;-62
2023/07/08 04:52:36;;;;;;;8.20;6.20;;;;;;;23.90;66.86;100721.23;179976;1264;45857;-62
2023/07/08 04:56:43;;;;;;;11.00;6.60;;;;;;;24.45;64.79;100722.62;180024;1263;44822;-61
2023/07/08 05:00:48;;;;;;;13.10;7.50;;;;;;;24.85;63.57;100729.27;180043;1264;58985;-61
2023/07/08 05:04:51;;;;;;;14.50;10.00;;;;;;;25.09;62.74;100728.58;180134;1263;43793;-62
2023/07/08 05:08:59;;;;;;;12.60;9.00;;;;;;;25.47;62.18;100719.77;180221;1263;44525;-61
2023/07/08 05:13:03;;;;;;;13.50;9.00;;;;;;;26.04;60.82;100718.77;180008;1264;43871;-62
2023/07/08 05:17:06;;;;;;;14.40;10.00;;;;;;;26.38;58.37;100715.77;180228;1262;43523;-61
2023/07/08 05:21:11;;;;;;;17.50;9.40;;;;;;;26.73;57.42;100720.46;180229;1266;58532;-62
2023/07/08 05:25:16;;;;;;;13.50;10.00;;;;;;;27.10;56.51;100715.02;180238;1262;45929;-62
2023/07/08 05:29:19;;;;;;;17.00;10.10;;;;;;;27.48;56.17;100714.70;180051;1264;44649;-61
2023/07/08 05:33:27;;;;;;;12.30;9.10;;;;;;;27.75;55.08;100717.96;180147;1264;44554;-61
2023/07/08 05:37:30;;;;;;;13.90;9.30;;;;;;;27.56;55.82;100720.58;179961;1262;45889;-62
2023/07/08 05:41:33;;;;;;;14.00;8.90;;;;;;;27.82;56.38;100717.82;180129;1262;58954;-61
2023/07/08 05:45:36;;;;;;;10.40;7.50;;;;;;;27.78;54.13;100713.70;180135;1262;45314;-61
2023/07/08 05:49:39;;;;;;;9.10;6.90;;;;;;;27.55;55.15;100715.52;180123;1262;43617;-61
2023/07/08 05:53:46;;;;;;;12.00;7.30;;;;;;;27.64;55.19;100712.93;180212;1265;43824;-62
2023/07/08 05:57:49;;;;;;;11.40;6.70;;;;;;;27.78;55.22;100709.89;180175;1262;44883;-62
2023/07/08 06:01:52;;;;;;;13.20;6.80;;;;;;;27.94;54.82;100712.02;180252;1261;59426;-62
2023/07/08 06:05:57;;;;;;;11.70;5.20;;;;;;;28.12;54.84;100710.70;180153;1263;43791;-61
2023/07/08 06:10:01;;;;;;;10.30;6.70;;;;;;;28.40;53.89;100712.80;180280;1262;43962;-62
2023/07/08 06:15:03;;;;;;;8.10;5.70;;;;;;;28.75;53.79;100714.31;180130;1264;45158;-62
2023/07/08 06:19:07;;;;;;;7.80;4.90;;;;;;;29.19;53.66;100717.84;180252;1262;45095;-62
2023/07/08 06:23:10;;;;;;;6.70;5.60;;;;;;;29.54;51.96;100718.83;180129;1264;58429;-62
2023/07/08 06:27:14;;;;;;;6.00;2.90;;;;;;;30.04;52.60;100711.15;180131;1263;43689;-62
2023/07/08 06:31:17;;;;;;;;;;;;;;;30.39;50.64;100706.34;180196;1262;45960;-63
2023/07/08 06:35:20;;;;;;;7.50;4.10;;;;;;;30.39;51.14;100704.48;180159;1263;45811;-62
2023/07/08 06:39:25;;;;;;;6.10;3.70;;;;;;;30.69;50.17;100706.36;180130;1262;43534;-62
2023/07/08 06:43:28;;;;;;;5.70;3.90;;;;;;;30.88;48.74;100703.57;180021;1263;58431;-62
2023/07/08 06:47:31;;;;;;;3.50;2.90;;;;;;;31.02;49.41;100705.02;180258;1262;43660;-62
2023/07/08 06:51:34;;;;;;;4.10;2.10;;;;;;;31.08;49.87;100703.64;180162;1263;43831;-62
2023/07/08 06:55:40;;;;;;;4.80;2.80;;;;;;;30.93;48.35;100705.77;180077;1262;46086;-63
2023/07/08 06:59:44;;;;;;;5.70;2.10;;;;;;;30.85;48.48;100706.06;180058;1262;44970;-62
2023/07/08 07:03:52;;;;;;;4.00;2.70;;;;;;;30.87;49.01;100704.55;180096;1262;58341;-61
2023/07/08 07:07:57;;;;;;;3.40;2.50;;;;;;;31.04;48.10;100706.99;179920;1261;44584;-61
2023/07/08 07:12:03;;;;;;;2.00;1.80;;;;;;;31.20;47.25;100710.80;180107;1262;43516;-61
2023/07/08 07:16:06;;;;;;;2.20;1.50;;;;;;;31.43;48.11;100707.35;180288;1261;45892;-61
2023/07/08 07:20:11;;;;;;;4.20;2.60;;;;;;;31.80;45.38;100710.88;180116;1262;46035;-61
2023/07/08 07:24:14;;;;;;;4.30;2.60;;;;;;;31.97;45.64;100711.84;180006;1262;59215;-61
2023/07/08 07:28:17;;;;;;;6.00;3.20;;;;;;;32.14;45.83;100701.94;180125;1262;43785;-61
2023/07/08 07:33:13;;;;;;;5.80;2.50;;;;;;;32.24;43.91;100707.08;180056;1262;43495;-62
2023/07/08 07:37:18;;;;;;;2.90;2.20;;;;;;;32.30;45.50;100709.35;180358;1262;43634;-62
2023/07/08 07:41:21;;;;;;;4.10;2.10;;;;;;;32.32;43.69;100706.90;180095;1262;44982;-63
2023/07/08 07:45:24;;;;;;;3.40;2.60;;;;;;;32.36;44.36;100703.37;180093;1262;58351;-62
2023/07/08 07:49:32;;;;;;;3.90;1.70;;;;;;;32.53;44.31;100699.87;180052;1262;45895;-62
2023/07/08 07:53:35;;;;;;;7.20;2.80;;;;;;;32.68;43.38;100700.41;180124;1266;44291;-62
2023/07/08 07:57:48;;;;;;;3.90;2.40;;;;;;;32.62;43.47;100698.17;180142;1262;45828;-62
2023/07/08 08:01:50;;;;;;;4.10;1.90;;;;;;;32.86;43.38;100700.45;180059;1262;44628;-62
2023/07/08 08:05:57;;;;;;;3.00;1.90;;;;;;;32.95;42.73;100696.81;179931;1263;157277;-61
2023/07/08 08:10:00;;;;;;;2.80;2.20;;;;;;;33.00;42.26;100695.86;180016;1262;43767;-60
2023/07/08 08:14:04;;;;;;;2.90;1.90;;;;;;;32.96;42.78;100692.41;179885;1262;45965;-60
2023/07/08 08:18:07;;;;;;;2.80;2.10;;;;;;;33.09;42.33;100698.39;179942;1262;43731;-61
2023/07/08 08:22:28;;;;;;;6.40;2.70;;;;;;;33.36;41.56;100695.05;180056;1261;44894;-61
2023/07/08 08:26:31;;;;;;;5.40;2.50;;;;;;;33.74;41.28;100688.79;179979;1262;57792;-62
2023/07/08 08:30:35;;;;;;;2.50;1.70;;;;;;;33.79;39.35;100691.71;179977;1262;43776;-61
2023/07/08 08:34:38;;;;;;;2.20;1.80;;;;;;;33.69;39.90;100694.79;180027;1262;45939;-61
2023/07/08 08:39:07;;;;;;;4.60;1.80;;;;;;;33.52;39.12;100687.40;179956;1262;43624;-61
2023/07/08 08:48:03;;;;;;;5.10;3.60;;;;;;;32.97;39.02;100687.02;180424;1262;58769;-61
2023/07/08 08:52:07;;;;;;;3.00;2.30;;;;;;;32.66;39.80;100688.79;180391;1262;44725;-63
2023/07/08 08:56:21;;;;;;;3.60;2.30;;;;;;;32.61;39.78;100692.39;180059;1262;45331;-67
2023/07/08 09:00:44;;;;;;;8.10;3.20;;;;;;;32.84;41.05;100688.92;179852;1262;46002;-67
2023/07/08 09:04:50;;;;;;;5.60;2.30;;;;;;;32.91;39.13;100684.35;179831;1262;46428;-66
2023/07/08 09:09:01;;;;;;;2.60;2.10;;;;;;;32.72;38.13;100684.25;179543;1262;59363;-68
2023/07/08 09:13:06;;;;;;;2.70;1.90;;;;;;;32.49;39.22;100676.87;179746;1262;45958;-68
2023/07/08 09:17:34;;;;;;;3.30;2.40;;;;;;;32.29;39.35;100678.56;179726;1262;45921;-66
2023/07/08 09:21:53;;;;;;;3.30;2.70;;;;;;;32.16;39.19;100676.27;179893;1262;43571;-67
2023/07/08 09:26:05;;;;;;;3.40;1.90;;;;;;;32.11;37.91;100671.65;179614;1263;46006;-66
2023/07/08 09:30:24;;;;;;;3.70;2.60;;;;;;;32.14;38.42;100667.22;179655;1263;58458;-66
2023/07/08 09:34:52;;;;;;;3.70;2.70;;;;;;;32.34;42.49;100671.75;179827;1262;43631;-67
2023/07/08 09:38:55;;;;;;;2.40;1.60;;;;;;;32.34;38.17;100671.13;179693;1262;46687;-67
2023/07/08 09:43:15;;;;;;;3.30;2.00;;;;;;;32.33;37.88;100662.48;179715;1262;45986;-67
2023/07/08 09:47:33;;;;;;;2.20;1.80;;;;;;;32.50;38.68;100657.08;179990;1262;43968;-67
2023/07/08 09:51:37;;;;;;;4.80;2.20;;;;;;;32.34;38.45;100654.47;180039;1262;57568;-67
2023/07/08 09:55:41;;;;;;;3.80;2.10;;;;;;;32.41;37.21;100654.97;180248;1262;43811;-67
2023/07/08 10:33:43;;;;;;;2.10;1.80;;;;;;;32.36;39.37;100640.63;184651;1241;43501;-66
2023/07/08 10:38:33;;;;;;;5.30;1.90;;;;;;;32.23;38.87;100642.04;183131;1250;44909;-65
2023/07/08 10:43:13;;;;;;;2.60;2.30;;;;;;;31.96;39.18;100643.36;183370;1250;43700;-65
2023/07/08 10:47:50;;;;;;;5.60;2.40;;;;;;;32.01;39.67;100643.66;181853;1256;43482;-65
2023/07/08 10:52:29;;;;;;;2.00;1.80;;;;;;;32.19;40.40;100637.44;181950;1255;58633;-66
2023/07/08 10:56:57;;;;;;;4.20;2.10;;;;;;;32.34;40.80;100636.95;181832;1255;43658;-67
2023/07/08 11:01:06;;;;;;;2.70;1.70;;;;;;;32.49;39.69;100627.06;181679;1255;46020;-65
2023/07/08 11:05:46;;;;;;;;;;;;;;;32.53;38.82;100624.16;181757;1256;43503;-65
2023/07/08 11:10:01;;;;;;;3.80;1.90;;;;;;;32.47;39.32;100623.25;181872;1255;43794;-66
2023/07/08 11:14:27;;;;;;;2.40;1.80;;;;;;;32.28;37.77;100619.08;182927;1249;57492;-65
2023/07/08 11:18:52;;;;;;;2.70;2.30;;;;;;;32.12;38.40;100613.94;183358;1250;46211;-65
2023/07/08 11:23:20;;;;;;;2.30;1.80;;;;;;;32.05;38.40;100616.20;183661;1242;43686;-65
2023/07/08 11:27:29;;;;;;;4.50;2.20;;;;;;;32.14;38.94;100619.07;184500;1243;43637;-66
2023/07/08 11:36:43;;;;;;;2.70;2.00;;;;;;;32.54;41.63;100613.16;186009;1237;57544;-67
2023/07/08 11:41:12;;;;;;;7.10;2.10;;;;;;;32.58;38.19;100608.05;185553;1237;43793;-68
2023/07/08 11:45:17;;;;;;;2.90;1.50;;;;;;;32.65;37.60;100601.77;185480;1238;44847;-67
2023/07/08 11:49:21;;;;;;;2.50;2.10;;;;;;;32.80;40.22;100596.17;185574;1236;45850;-67
2023/07/08 11:53:28;;;;;;;3.30;1.90;;;;;;;32.96;39.29;100592.64;185769;1235;45099;-66
2023/07/08 11:57:43;;;;;;;3.50;1.80;;;;;;;32.86;35.87;100590.38;185738;1239;58522;-67
2023/07/08 12:01:50;;;;;;;3.50;2.10;;;;;;;32.82;37.36;100586.71;185621;1235;43500;-67
2023/07/08 12:05:56;;;;;;;6.20;2.30;;;;;;;32.81;38.39;100585.45;186899;1238;42916;-66
2023/07/08 12:10:04;;;;;;;3.40;2.10;;;;;;;32.80;37.81;100585.27;186564;1239;42952;-67
2023/07/08 12:14:08;;;;;;;9.50;3.60;;;;;;;32.79;36.04;100580.53;186214;1244;43044;-67
2023/07/08 12:18:21;;;;;;;;;;;;;;;32.58;37.01;100586.59;185869;1245;59361;-66
2023/07/08 12:22:22;;;;;;;3.90;2.90;;;;;;;32.37;37.12;100580.85;185801;1244;43399;-65
2023/07/08 12:42:34;;;;;;;2.30;2.10;;;;;;;33.39;39.32;100550.33;182047;1260;59851;-68
2023/07/08 12:46:39;;;;;;;2.60;1.80;;;;;;;33.56;38.80;100546.58;186173;1232;81810;-67
2023/07/08 12:55:29;;;;;;;2.70;2.20;;;;;;;33.67;38.13;100534.95;186122;1232;43215;-66
2023/07/08 12:59:32;;;;;;;2.30;1.70;;;;;;;33.47;34.98;100538.91;185910;1236;44739;-67
2023/07/08 13:03:49;;;;;;;2.10;1.80;;;;;;;33.32;35.24;100537.31;186028;1232;58376;-66
2023/07/08 13:07:57;;;;;;;4.40;2.40;;;;;;;33.09;35.16;100529.76;185892;1232;43636;-67
2023/07/08 13:12:23;;;;;;;3.00;2.20;;;;;;;33.00;35.29;100534.48;186078;1232;43488;-68
2023/07/08 13:16:34;;;;;;;2.70;1.90;;;;;;;32.90;35.58;100527.89;186053;1232;45991;-67
2023/07/08 13:20:36;;;;;;;3.70;1.90;;;;;;;32.96;35.30;100524.10;185988;1233;45986;-67
2023/07/08 13:25:03;;;;;;;2.80;2.10;;;;;;;32.95;34.31;100519.36;185934;1232;58198;-67
2023/07/08 13:29:39;;;;;;;2.70;2.20;;;;;;;32.77;33.98;100520.49;185880;1232;45230;-67
2023/07/08 13:33:47;;;;;;;6.60;2.30;;;;;;;32.79;33.76;100514.54;185751;1232;44738;-67
2023/07/08 13:37:50;;;;;;;1.80;1.70;;;;;;;32.96;37.67;100507.67;186077;1231;43524;-67
2023/07/08 13:41:52;;;;;;;3.20;1.70;;;;;;;33.12;35.70;100508.72;186188;1234;43629;-67
2023/07/08 13:45:54;;;;;;;5.00;1.60;;;;;;;33.15;33.22;100507.30;185633;1232;58625;-68
2023/07/08 13:55:04;;;;;;;3.50;2.10;;;;;;;33.35;33.19;100502.75;185746;1233;44497;-68
2023/07/08 13:59:32;;;;;;;5.60;2.00;;;;;;;33.38;34.33;100502.80;186183;1232;43572;-67
2023/07/08 14:03:33;;;;;;;3.20;2.10;;;;;;;33.50;36.99;100496.38;185743;1233;45965;-68
2023/07/08 14:07:39;;;;;;;3.30;2.50;;;;;;;33.64;37.00;100501.91;185673;1234;58425;-68
2023/07/08 14:11:43;;;;;;;2.60;1.50;;;;;;;33.67;36.93;100502.30;185961;1232;45927;-67
2023/07/08 14:16:25;;;;;;;3.10;1.70;;;;;;;33.40;36.06;100499.34;185790;1232;46084;-67
2023/07/08 14:20:33;;;;;;;2.40;2.20;;;;;;;32.96;36.25;100502.56;186031;1232;44422;-67
2023/07/08 14:24:42;;;;;;;3.50;3.20;;;;;;;32.86;38.60;100507.86;185913;1232;44647;-67
2023/07/08 14:28:43;;;;;;;2.00;1.80;;;;;;;32.85;40.26;100502.66;185507;1232;58268;-66
2023/07/08 14:32:46;;;;;;;6.50;2.20;;;;;;;32.93;37.04;100500.23;185522;1233;45203;-66
2023/07/08 14:36:54;;;;;;;2.50;2.20;;;;;;;32.89;36.95;100497.09;185637;1234;44416;-67
2023/07/08 14:40:56;;;;;;;4.90;2.40;;;;;;;32.89;37.50;100500.45;185519;1232;44977;-66
2023/07/08 14:45:01;;;;;;;3.50;2.10;;;;;;;32.77;36.47;100491.95;185635;1233;43516;-67
2023/07/08 14:49:12;;;;;;;;;;;;;;;32.83;38.85;100491.38;185657;1233;57961;-67
2023/07/08 14:53:16;;;;;;;29.80;7.20;;;;;;;32.94;37.55;100487.02;185622;1232;45657;-66
2023/07/08 15:01:59;;;;;;;3.00;2.60;;;;;;;32.98;36.36;100487.20;185645;1233;44642;-66
2023/07/08 15:06:02;;;;;;;3.30;2.40;;;;;;;33.05;35.70;100483.20;185894;1233;43747;-68
2023/07/08 15:10:09;;;;;;;6.00;2.00;;;;;;;33.07;35.43;100481.27;185648;1232;58403;-67
2023/07/08 15:14:26;;;;;;;3.50;1.70;;;;;;;33.26;34.72;100480.68;185460;1232;44747;-66
2023/07/08 15:18:29;;;;;;;2.00;1.60;;;;;;;33.46;35.60;100474.71;185359;1236;43902;-67
2023/07/08 15:22:36;;;;;;;6.00;4.40;;;;;;;33.68;33.97;100476.97;185449;1232;44546;-67
2023/07/08 15:26:52;;;;;;;9.10;4.00;;;;;;;33.90;33.83;100474.86;185708;1235;45911;-67
2023/07/08 15:31:25;;;;;;;2.80;2.20;;;;;;;34.14;34.31;100473.02;185502;1235;58591;-67
2023/07/08 16:07:02;;;;;;;2.10;1.80;;;;;;;33.80;36.33;100463.67;181177;1260;46161;-66
2023/07/08 16:11:30;;;;;;;5.40;3.10;;;;;;;33.40;34.93;100466.48;184019;1245;43660;-65
2023/07/08 16:15:36;;;;;;;2.20;1.80;;;;;;;33.24;36.42;100465.86;184004;1243;46122;-65
2023/07/08 16:19:41;;;;;;;3.00;2.40;;;;;;;33.19;39.56;100466.85;183872;1243;58311;-67
2023/07/08 16:23:43;;;;;;;3.80;2.10;;;;;;;33.20;38.67;100462.92;183953;1243;46011;-67
2023/07/08 16:27:49;;;;;;;6.10;2.80;;;;;;;33.18;41.39;100464.74;183898;1242;46120;-67
2023/07/08 16:31:52;;;;;;;3.30;2.40;;;;;;;33.22;41.50;100464.76;183948;1242;45921;-68
2023/07/08 16:35:59;;;;;;;4.10;2.50;;;;;;;33.24;37.95;100466.52;183977;1243;45947;-67
2023/07/08 16:40:02;;;;;;;3.50;2.70;;;;;;;33.26;38.22;100459.80;185707;1243;58111;-67
2023/07/08 16:44:28;;;;;;;4.50;3.10;;;;;;;33.22;36.30;100458.52;185742;1242;43089;-66
2023/07/08 16:48:30;;;;;;;2.90;2.10;;;;;;;33.12;36.83;100462.70;185815;1243;43670;-67
2023/07/08 16:52:33;;;;;;;4.00;2.90;;;;;;;32.90;37.23;100460.50;185798;1243;43410;-67
2023/07/08 16:56:35;;;;;;;4.40;2.40;;;;;;;32.65;37.08;100457.27;185772;1244;43535;-66
2023/07/08 17:00:37;;;;;;;4.40;2.80;;;;;;;32.55;36.95;100461.31;185702;1242;57968;-66
2023/07/08 17:04:39;;;;;;;2.70;2.00;;;;;;;32.52;40.43;100459.32;185778;1243;43004;-66
2023/07/08 17:08:42;;;;;;;4.30;2.80;;;;;;;32.48;42.24;100462.23;185727;1242;42916;-67
2023/07/08 17:13:08;;;;;;;2.20;1.70;;;;;;;32.31;40.52;100461.25;185795;1243;43066;-66
2023/07/08 17:17:14;;;;;;;3.20;2.30;;;;;;;32.10;40.86;100461.96;185800;1242;43326;-67
2023/07/08 17:21:16;;;;;;;2.80;2.50;;;;;;;32.00;41.24;100459.70;185794;1242;58114;-66
2023/07/08 17:25:20;;;;;;;5.80;3.30;;;;;;;31.94;40.32;100460.27;185663;1243;43621;-66
2023/07/08 17:29:22;;;;;;;4.80;3.10;;;;;;;31.89;38.97;100458.75;185829;1243;43018;-67
2023/07/08 17:33:25;;;;;;;3.50;2.10;;;;;;;31.84;39.45;100457.05;185796;1243;43585;-66
2023/07/08 17:37:27;;;;;;;5.00;2.60;;;;;;;31.75;39.87;100457.81;185813;1244;43660;-66
2023/07/08 17:41:29;;;;;;;3.80;2.60;;;;;;;31.61;40.32;100456.30;185774;1243;58104;-66
2023/07/08 17:45:35;;;;;;;6.60;2.60;;;;;;;31.47;41.33;100453.61;185813;1242;43836;-66
2023/07/08 17:49:38;;;;;;;3.30;2.10;;;;;;;31.30;40.87;100454.13;185739;1243;43578;-66
2023/07/08 17:53:40;;;;;;;5.40;2.50;;;;;;;31.13;39.07;100454.71;185805;1246;42991;-66
2023/07/08 17:57:46;;;;;;;2.30;1.90;;;;;;;30.99;40.36;100456.95;185512;1249;43666;-73
2023/07/08 18:01:52;;;;;;;6.10;2.90;;;;;;;30.81;41.62;100453.90;185020;1250;57798;-66
2023/07/08 18:05:54;;;;;;;2.30;2.00;;;;;;;30.67;41.20;100450.27;185009;1249;43127;-66
2023/07/08 18:09:56;;;;;;;2.90;2.20;;;;;;;30.55;42.04;100455.33;185767;1245;43633;-65
2023/07/08 18:13:59;;;;;;;3.00;2.60;;;;;;;30.41;41.82;100454.21;185602;1247;43684;-65
2023/07/08 18:18:02;;;;;;;3.90;2.40;;;;;;;30.25;45.56;100461.30;185673;1246;43757;-65
2023/07/08 18:22:12;;;;;;;36.90;7.50;;;;;;;30.04;47.78;100458.86;185459;1247;58041;-65
2023/07/08 18:26:20;;;;;;;64.40;12.10;;;;;;;29.75;48.78;100458.20;185439;1247;43045;-65
2023/07/08 18:30:29;;;;;;;11.60;5.20;;;;;;;29.46;49.64;100458.21;185631;1246;42917;-65
2023/07/08 18:34:31;;;;;;;15.40;5.90;;;;;;;29.15;52.98;100459.30;185658;1246;43596;-67
2023/07/08 18:38:33;;;;;;;98.10;20.20;;;;;;;28.87;51.50;100459.33;185806;1241;42904;-66
2023/07/08 18:42:35;;;;;;;46.80;10.10;;;;;;;28.62;52.31;100457.98;185755;1244;57226;-66
2023/07/08 18:46:42;;;;;;;31.90;9.00;;;;;;;28.34;52.99;100463.64;185976;1241;42940;-67
2023/07/08 18:51:24;;;;;;;35.60;14.90;;;;;;;28.07;54.13;100465.49;185944;1245;43570;-66
2023/07/08 18:55:26;;;;;;;46.60;17.90;;;;;;;27.76;54.23;100470.33;185826;1241;43072;-66
2023/07/08 18:59:28;;;;;;;20.90;13.80;;;;;;;27.34;53.96;100477.48;186042;1241;43277;-66
2023/07/08 19:07:00;;;;;;;66.50;16.20;;;;;;;26.91;56.73;100483.17;176808;1285;569897;-66
2023/07/08 19:16:48;;;;;;;5.60;3.30;;;;;;;26.21;58.38;100491.92;144153;1269;45913;-66
2023/07/08 19:20:56;;;;;;;8.10;4.20;;;;;;;25.81;59.54;100496.57;179511;1267;251837;-66
2023/07/08 19:25:00;;;;;;;7.90;4.10;;;;;;;25.47;59.27;100500.62;179364;1266;46357;-66
2023/07/08 19:29:05;;;;;;;22.80;4.60;;;;;;;25.24;61.13;100503.02;179370;1267;45955;-67
2023/07/08 19:33:16;;;;;;;37.60;10.00;;;;;;;24.99;62.37;100505.44;179612;1267;58981;-66
2023/07/08 19:37:20;;;;;;;62.00;17.20;;;;;;;24.73;63.22;100513.55;179564;1266;43581;-66
2023/07/08 19:41:28;;;;;;;155.20;38.10;;;;;;;24.41;61.90;100513.55;179406;1266;89820;-90
2023/07/08 19:45:34;;;;;;;9.50;5.40;;;;;;;24.08;63.84;100521.73;179585;1267;44713;-91
2023/07/08 19:59:17;;;;;;;5.90;3.20;;;;;;;23.44;66.25;100533.61;179605;1267;44062;-60
2023/07/08 20:03:22;;;;;;;5.10;4.60;;;;;;;23.21;67.60;100535.65;179538;1270;45155;-60
2023/07/08 20:07:26;;;;;;;5.00;3.90;;;;;;;23.01;68.93;100540.02;179501;1266;43594;-60
2023/07/08 20:11:29;;;;;;;7.10;4.10;;;;;;;22.85;69.28;100543.45;179630;1266;43631;-61
2023/07/08 20:15:38;;;;;;;11.40;7.50;;;;;;;22.71;70.37;100540.14;179417;1267;58634;-62
2023/07/08 20:19:43;;;;;;;20.90;11.40;;;;;;;22.53;72.04;100546.03;179499;1267;46044;-62
2023/07/08 20:24:12;;;;;;;20.20;12.90;;;;;;;22.33;72.71;100545.83;179585;1267;43496;-61
2023/07/08 20:28:16;;;;;;;13.30;9.20;;;;;;;22.09;74.31;100552.90;179502;1266;43580;-61
2023/07/08 20:32:19;;;;;;;9.60;8.20;;;;;;;22.02;74.24;100554.70;179492;1267;43937;-61
2023/07/08 20:36:50;;;;;;;16.40;12.80;;;;;;;21.94;75.00;100555.76;179648;1266;58934;-61
2023/07/08 20:40:56;;;;;;;27.00;18.70;;;;;;;21.80;75.42;100556.63;179549;1266;43869;-60
2023/07/08 20:44:59;;;;;;;29.70;18.20;;;;;;;21.71;75.80;100563.42;179518;1267;45871;-61
2023/07/08 20:49:03;;;;;;;32.20;19.90;;;;;;;21.66;76.10;100568.77;179582;1266;44566;-61
2023/07/08 20:53:12;;;;;;;14.90;10.30;;;;;;;21.57;76.58;100569.41;179582;1270;45900;-61
2023/07/08 20:57:43;;;;;;;10.60;7.20;;;;;;;21.52;75.96;100567.77;179397;1266;58597;-61
2023/07/08 21:01:54;;;;;;;10.90;7.70;;;;;;;21.48;76.02;100565.14;179483;1267;46075;-61
2023/07/08 21:06:00;;;;;;;21.80;16.30;;;;;;;21.41;76.64;100569.48;179654;1266;45941;-62
2023/07/08 21:10:04;;;;;;;;;;;;;;;21.34;76.00;100567.91;179541;1266;45983;-62
2023/07/08 21:14:07;;;;;;;15.80;12.20;;;;;;;21.30;76.16;100567.52;179898;1267;45682;-62
2023/07/08 21:18:19;;;;;;;13.90;9.40;;;;;;;21.25;75.55;100567.27;180032;1267;58420;-62
2023/07/08 21:22:22;;;;;;;11.70;7.80;;;;;;;21.22;75.48;100566.73;179890;1267;45830;-62
2023/07/08 21:26:30;;;;;;;10.50;7.30;;;;;;;21.20;75.40;100573.02;179417;1270;46172;-62